sensor_id;sensor_type;location;lat;lon;timestamp;P1;durP1;ratioP1;P2;durP2;ratioP2
15536;SDS011;7870;52.448;13.270;2023-08-24T00:01:37;5.82;;;3.58;;
15536;SDS011;7870;52.448;13.270;2023-08-24T00:04:04;4.70;;;3.17;;
15536;SDS011;7870;52.448;13.270;2023-08-24T00:06:31;5.65;;;3.30;;
15536;SDS011;7870;52.448;13.270;2023-08-24T00:08:58;5.22;;;3.90;;
15536;SDS011;7870;52.448;13.270;2023-08-24T00:11:25;5.68;;;3.22;;
15536;SDS011;7870;52.448;13.270;2023-08-24T00:13:52;7.63;;;3.45;;
15536;SDS011;7870;52.448;13.270;2023-08-24T00:16:20;8.25;;;3.05;;
15536;SDS011;7870;52.448;13.270;2023-08-24T00:18:46;7.05;;;3.35;;
15536;SDS011;7870;52.448;13.270;2023-08-24T00:21:13;6.55;;;4.15;;
15536;SDS011;7870;52.448;13.270;2023-08-24T00:23:43;6.60;;;3.45;;
15536;SDS011;7870;52.448;13.270;2023-08-24T00:26:10;6.63;;;3.70;;
15536;SDS011;7870;52.448;13.270;2023-08-24T00:28:37;4.10;;;3.35;;
15536;SDS011;7870;52.448;13.270;2023-08-24T00:31:04;8.27;;;3.83;;
15536;SDS011;7870;52.448;13.270;2023-08-24T00:33:31;6.07;;;3.88;;
15536;SDS011;7870;52.448;13.270;2023-08-24T00:36:01;5.90;;;3.47;;
15536;SDS011;7870;52.448;13.270;2023-08-24T00:38:28;7.25;;;3.53;;
15536;SDS011;7870;52.448;13.270;2023-08-24T00:40:57;5.47;;;3.65;;
15536;SDS011;7870;52.448;13.270;2023-08-24T00:43:25;5.78;;;3.60;;
15536;SDS011;7870;52.448;13.270;2023-08-24T00:45:53;5.03;;;3.13;;
15536;SDS011;7870;52.448;13.270;2023-08-24T00:48:21;6.32;;;3.55;;
15536;SDS011;7870;52.448;13.270;2023-08-24T00:50:53;4.82;;;3.63;;
15536;SDS011;7870;52.448;13.270;2023-08-24T00:53:20;5.85;;;3.40;;
15536;SDS011;7870;52.448;13.270;2023-08-24T00:55:50;5.75;;;3.10;;
15536;SDS011;7870;52.448;13.270;2023-08-24T00:58:17;7.07;;;3.67;;
15536;SDS011;7870;52.448;13.270;2023-08-24T01:00:45;5.60;;;3.67;;
15536;SDS011;7870;52.448;13.270;2023-08-24T01:03:12;3.97;;;2.90;;
15536;SDS011;7870;52.448;13.270;2023-08-24T01:05:42;6.88;;;3.80;;
15536;SDS011;7870;52.448;13.270;2023-08-24T01:08:10;5.53;;;3.50;;
15536;SDS011;7870;52.448;13.270;2023-08-24T01:10:39;5.95;;;3.70;;
15536;SDS011;7870;52.448;13.270;2023-08-24T01:13:10;5.80;;;3.60;;
15536;SDS011;7870;52.448;13.270;2023-08-24T01:15:44;5.50;;;3.25;;
15536;SDS011;7870;52.448;13.270;2023-08-24T01:18:15;4.43;;;3.05;;
15536;SDS011;7870;52.448;13.270;2023-08-24T01:20:43;7.72;;;3.30;;
15536;SDS011;7870;52.448;13.270;2023-08-24T01:28:37;5.65;;;3.55;;
15536;SDS011;7870;52.448;13.270;2023-08-24T01:31:05;3.45;;;3.05;;
15536;SDS011;7870;52.448;13.270;2023-08-24T01:33:32;5.47;;;3.58;;
15536;SDS011;7870;52.448;13.270;2023-08-24T01:35:59;5.95;;;3.28;;
15536;SDS011;7870;52.448;13.270;2023-08-24T01:38:26;4.25;;;3.17;;
15536;SDS011;7870;52.448;13.270;2023-08-24T01:40:54;7.28;;;3.08;;
15536;SDS011;7870;52.448;13.270;2023-08-24T01:43:35;5.07;;;2.95;;
15536;SDS011;7870;52.448;13.270;2023-08-24T01:46:05;5.47;;;2.88;;
15536;SDS011;7870;52.448;13.270;2023-08-24T01:48:33;6.30;;;2.75;;
15536;SDS011;7870;52.448;13.270;2023-08-24T01:51:00;9.68;;;3.72;;
15536;SDS011;7870;52.448;13.270;2023-08-24T01:53:29;3.97;;;3.28;;
15536;SDS011;7870;52.448;13.270;2023-08-24T01:55:57;7.35;;;3.20;;
15536;SDS011;7870;52.448;13.270;2023-08-24T01:58:24;5.22;;;3.42;;
15536;SDS011;7870;52.448;13.270;2023-08-24T02:00:50;4.63;;;3.25;;
15536;SDS011;7870;52.448;13.270;2023-08-24T02:03:17;5.75;;;3.33;;
15536;SDS011;7870;52.448;13.270;2023-08-24T02:05:44;6.47;;;4.07;;
15536;SDS011;7870;52.448;13.270;2023-08-24T02:08:10;4.38;;;3.20;;
15536;SDS011;7870;52.448;13.270;2023-08-24T02:10:37;5.53;;;3.85;;
15536;SDS011;7870;52.448;13.270;2023-08-24T02:13:03;9.38;;;3.83;;
15536;SDS011;7870;52.448;13.270;2023-08-24T02:15:30;4.38;;;3.55;;
15536;SDS011;7870;52.448;13.270;2023-08-24T02:17:56;5.15;;;3.40;;
15536;SDS011;7870;52.448;13.270;2023-08-24T02:20:23;3.83;;;3.20;;
15536;SDS011;7870;52.448;13.270;2023-08-24T02:22:50;4.32;;;3.30;;
15536;SDS011;7870;52.448;13.270;2023-08-24T02:25:17;4.95;;;3.65;;
15536;SDS011;7870;52.448;13.270;2023-08-24T02:27:43;7.30;;;4.00;;
15536;SDS011;7870;52.448;13.270;2023-08-24T02:30:10;3.90;;;3.30;;
15536;SDS011;7870;52.448;13.270;2023-08-24T02:32:37;5.90;;;3.83;;
15536;SDS011;7870;52.448;13.270;2023-08-24T02:35:04;7.35;;;3.22;;
15536;SDS011;7870;52.448;13.270;2023-08-24T02:37:31;4.07;;;3.65;;
15536;SDS011;7870;52.448;13.270;2023-08-24T02:39:57;6.60;;;3.72;;
15536;SDS011;7870;52.448;13.270;2023-08-24T02:42:24;4.40;;;3.38;;
15536;SDS011;7870;52.448;13.270;2023-08-24T02:44:50;5.57;;;3.63;;
15536;SDS011;7870;52.448;13.270;2023-08-24T02:47:17;6.30;;;4.15;;
15536;SDS011;7870;52.448;13.270;2023-08-24T02:49:43;6.80;;;3.72;;
15536;SDS011;7870;52.448;13.270;2023-08-24T02:52:10;5.95;;;3.67;;
15536;SDS011;7870;52.448;13.270;2023-08-24T02:54:36;9.25;;;3.97;;
15536;SDS011;7870;52.448;13.270;2023-08-24T02:57:03;4.60;;;3.70;;
15536;SDS011;7870;52.448;13.270;2023-08-24T02:59:30;4.28;;;3.00;;
15536;SDS011;7870;52.448;13.270;2023-08-24T03:01:56;4.38;;;3.67;;
15536;SDS011;7870;52.448;13.270;2023-08-24T03:04:24;4.63;;;3.20;;
15536;SDS011;7870;52.448;13.270;2023-08-24T03:06:51;6.07;;;3.60;;
15536;SDS011;7870;52.448;13.270;2023-08-24T03:09:18;11.13;;;4.38;;
15536;SDS011;7870;52.448;13.270;2023-08-24T03:11:44;3.95;;;3.30;;
15536;SDS011;7870;52.448;13.270;2023-08-24T03:14:11;4.93;;;3.97;;
15536;SDS011;7870;52.448;13.270;2023-08-24T03:16:38;5.78;;;3.70;;
15536;SDS011;7870;52.448;13.270;2023-08-24T03:19:05;5.50;;;3.45;;
15536;SDS011;7870;52.448;13.270;2023-08-24T03:21:32;4.68;;;3.25;;
15536;SDS011;7870;52.448;13.270;2023-08-24T03:23:58;4.68;;;3.00;;
15536;SDS011;7870;52.448;13.270;2023-08-24T03:26:25;3.78;;;3.10;;
15536;SDS011;7870;52.448;13.270;2023-08-24T03:28:52;4.85;;;3.30;;
15536;SDS011;7870;52.448;13.270;2023-08-24T03:31:19;6.10;;;3.33;;
15536;SDS011;7870;52.448;13.270;2023-08-24T03:33:46;6.53;;;4.88;;
15536;SDS011;7870;52.448;13.270;2023-08-24T03:36:13;5.78;;;3.75;;
15536;SDS011;7870;52.448;13.270;2023-08-24T03:41:29;5.78;;;3.40;;
15536;SDS011;7870;52.448;13.270;2023-08-24T03:43:57;4.82;;;3.72;;
15536;SDS011;7870;52.448;13.270;2023-08-24T03:46:23;4.78;;;3.47;;
15536;SDS011;7870;52.448;13.270;2023-08-24T03:48:50;5.95;;;3.25;;
15536;SDS011;7870;52.448;13.270;2023-08-24T03:51:16;5.68;;;3.42;;
15536;SDS011;7870;52.448;13.270;2023-08-24T03:53:43;4.32;;;3.47;;
15536;SDS011;7870;52.448;13.270;2023-08-24T03:56:10;6.35;;;3.83;;
15536;SDS011;7870;52.448;13.270;2023-08-24T03:58:36;7.60;;;3.72;;
15536;SDS011;7870;52.448;13.270;2023-08-24T04:01:04;6.05;;;3.47;;
15536;SDS011;7870;52.448;13.270;2023-08-24T04:03:33;5.88;;;3.40;;
15536;SDS011;7870;52.448;13.270;2023-08-24T04:06:02;6.07;;;3.83;;
15536;SDS011;7870;52.448;13.270;2023-08-24T04:08:28;7.25;;;3.72;;
15536;SDS011;7870;52.448;13.270;2023-08-24T04:10:55;6.95;;;3.88;;
15536;SDS011;7870;52.448;13.270;2023-08-24T04:13:23;5.10;;;3.72;;
15536;SDS011;7870;52.448;13.270;2023-08-24T04:15:49;4.97;;;3.20;;
15536;SDS011;7870;52.448;13.270;2023-08-24T04:18:16;6.07;;;3.35;;
15536;SDS011;7870;52.448;13.270;2023-08-24T04:20:43;6.70;;;3.80;;
15536;SDS011;7870;52.448;13.270;2023-08-24T04:23:09;7.05;;;3.65;;
15536;SDS011;7870;52.448;13.270;2023-08-24T04:25:38;4.10;;;3.40;;
15536;SDS011;7870;52.448;13.270;2023-08-24T04:28:06;5.80;;;4.03;;
15536;SDS011;7870;52.448;13.270;2023-08-24T04:30:32;8.55;;;3.35;;
15536;SDS011;7870;52.448;13.270;2023-08-24T04:32:59;3.55;;;3.15;;
15536;SDS011;7870;52.448;13.270;2023-08-24T04:35:26;4.63;;;3.38;;
15536;SDS011;7870;52.448;13.270;2023-08-24T04:37:53;5.97;;;3.30;;
15536;SDS011;7870;52.448;13.270;2023-08-24T04:40:21;4.05;;;3.10;;
15536;SDS011;7870;52.448;13.270;2023-08-24T04:42:47;7.90;;;3.90;;
15536;SDS011;7870;52.448;13.270;2023-08-24T04:45:14;4.10;;;3.15;;
15536;SDS011;7870;52.448;13.270;2023-08-24T04:47:41;6.25;;;3.78;;
15536;SDS011;7870;52.448;13.270;2023-08-24T04:50:07;9.98;;;3.72;;
15536;SDS011;7870;52.448;13.270;2023-08-24T04:52:34;6.45;;;3.53;;
15536;SDS011;7870;52.448;13.270;2023-08-24T04:55:01;5.03;;;3.03;;
15536;SDS011;7870;52.448;13.270;2023-08-24T04:57:27;9.68;;;3.40;;
15536;SDS011;7870;52.448;13.270;2023-08-24T04:59:54;4.22;;;3.20;;
15536;SDS011;7870;52.448;13.270;2023-08-24T05:02:20;5.85;;;3.60;;
15536;SDS011;7870;52.448;13.270;2023-08-24T05:04:47;5.20;;;3.55;;
15536;SDS011;7870;52.448;13.270;2023-08-24T05:07:15;5.03;;;3.35;;
15536;SDS011;7870;52.448;13.270;2023-08-24T05:09:41;7.97;;;3.67;;
15536;SDS011;7870;52.448;13.270;2023-08-24T05:12:08;6.55;;;3.42;;
15536;SDS011;7870;52.448;13.270;2023-08-24T05:14:34;3.97;;;2.90;;
15536;SDS011;7870;52.448;13.270;2023-08-24T05:17:01;7.90;;;3.58;;
15536;SDS011;7870;52.448;13.270;2023-08-24T05:19:27;5.30;;;3.38;;
15536;SDS011;7870;52.448;13.270;2023-08-24T05:21:55;6.15;;;3.25;;
15536;SDS011;7870;52.448;13.270;2023-08-24T05:24:22;5.78;;;3.15;;
15536;SDS011;7870;52.448;13.270;2023-08-24T05:26:48;7.95;;;3.40;;
15536;SDS011;7870;52.448;13.270;2023-08-24T05:29:15;3.90;;;3.08;;
15536;SDS011;7870;52.448;13.270;2023-08-24T05:31:41;5.75;;;3.55;;
15536;SDS011;7870;52.448;13.270;2023-08-24T05:34:08;5.05;;;2.80;;
15536;SDS011;7870;52.448;13.270;2023-08-24T05:36:34;4.18;;;2.88;;
15536;SDS011;7870;52.448;13.270;2023-08-24T05:39:01;7.95;;;3.97;;
15536;SDS011;7870;52.448;13.270;2023-08-24T05:41:31;9.13;;;2.70;;
15536;SDS011;7870;52.448;13.270;2023-08-24T05:43:58;6.13;;;2.95;;
15536;SDS011;7870;52.448;13.270;2023-08-24T05:46:24;5.05;;;2.72;;
15536;SDS011;7870;52.448;13.270;2023-08-24T05:48:51;5.90;;;3.13;;
15536;SDS011;7870;52.448;13.270;2023-08-24T05:51:17;5.40;;;2.92;;
15536;SDS011;7870;52.448;13.270;2023-08-24T05:53:44;4.05;;;2.78;;
15536;SDS011;7870;52.448;13.270;2023-08-24T05:56:10;3.72;;;2.42;;
15536;SDS011;7870;52.448;13.270;2023-08-24T05:58:37;8.75;;;3.00;;
15536;SDS011;7870;52.448;13.270;2023-08-24T06:01:03;4.50;;;2.88;;
15536;SDS011;7870;52.448;13.270;2023-08-24T06:03:30;4.50;;;2.65;;
15536;SDS011;7870;52.448;13.270;2023-08-24T06:06:03;4.10;;;2.40;;
15536;SDS011;7870;52.448;13.270;2023-08-24T06:08:30;4.50;;;2.58;;
15536;SDS011;7870;52.448;13.270;2023-08-24T06:10:57;4.47;;;2.50;;
15536;SDS011;7870;52.448;13.270;2023-08-24T06:13:24;5.15;;;2.95;;
15536;SDS011;7870;52.448;13.270;2023-08-24T06:15:51;5.35;;;2.45;;
15536;SDS011;7870;52.448;13.270;2023-08-24T06:18:17;4.55;;;1.98;;
15536;SDS011;7870;52.448;13.270;2023-08-24T06:20:44;5.22;;;2.35;;
15536;SDS011;7870;52.448;13.270;2023-08-24T06:23:12;6.60;;;2.58;;
15536;SDS011;7870;52.448;13.270;2023-08-24T06:25:41;6.20;;;2.30;;
15536;SDS011;7870;52.448;13.270;2023-08-24T06:28:07;4.25;;;2.03;;
15536;SDS011;7870;52.448;13.270;2023-08-24T06:30:38;5.78;;;2.22;;
15536;SDS011;7870;52.448;13.270;2023-08-24T06:33:06;3.03;;;2.00;;
15536;SDS011;7870;52.448;13.270;2023-08-24T06:35:33;4.55;;;2.10;;
15536;SDS011;7870;52.448;13.270;2023-08-24T06:38:00;3.88;;;2.40;;
15536;SDS011;7870;52.448;13.270;2023-08-24T06:40:28;4.93;;;2.15;;
15536;SDS011;7870;52.448;13.270;2023-08-24T06:42:55;3.45;;;1.90;;
15536;SDS011;7870;52.448;13.270;2023-08-24T06:45:22;4.85;;;1.92;;
15536;SDS011;7870;52.448;13.270;2023-08-24T06:47:49;4.55;;;2.50;;
15536;SDS011;7870;52.448;13.270;2023-08-24T06:50:16;5.32;;;2.08;;
15536;SDS011;7870;52.448;13.270;2023-08-24T06:52:43;4.47;;;1.88;;
15536;SDS011;7870;52.448;13.270;2023-08-24T06:55:09;4.50;;;1.95;;
15536;SDS011;7870;52.448;13.270;2023-08-24T06:57:36;5.90;;;1.70;;
15536;SDS011;7870;52.448;13.270;2023-08-24T07:00:03;4.75;;;2.15;;
15536;SDS011;7870;52.448;13.270;2023-08-24T07:02:33;5.15;;;2.00;;
15536;SDS011;7870;52.448;13.270;2023-08-24T07:05:00;5.00;;;1.80;;
15536;SDS011;7870;52.448;13.270;2023-08-24T07:07:27;4.25;;;1.98;;
15536;SDS011;7870;52.448;13.270;2023-08-24T07:09:54;5.40;;;1.88;;
15536;SDS011;7870;52.448;13.270;2023-08-24T07:12:20;3.78;;;2.00;;
15536;SDS011;7870;52.448;13.270;2023-08-24T07:14:47;3.45;;;1.42;;
15536;SDS011;7870;52.448;13.270;2023-08-24T07:17:13;3.25;;;1.83;;
15536;SDS011;7870;52.448;13.270;2023-08-24T07:19:40;4.53;;;1.90;;
15536;SDS011;7870;52.448;13.270;2023-08-24T07:22:06;6.20;;;2.10;;
15536;SDS011;7870;52.448;13.270;2023-08-24T07:24:34;3.15;;;1.73;;
15536;SDS011;7870;52.448;13.270;2023-08-24T07:27:11;3.90;;;1.90;;
15536;SDS011;7870;52.448;13.270;2023-08-24T07:29:38;3.45;;;1.90;;
15536;SDS011;7870;52.448;13.270;2023-08-24T07:32:04;5.03;;;1.70;;
15536;SDS011;7870;52.448;13.270;2023-08-24T07:34:31;4.15;;;1.90;;
15536;SDS011;7870;52.448;13.270;2023-08-24T07:36:58;5.07;;;1.70;;
15536;SDS011;7870;52.448;13.270;2023-08-24T07:39:24;5.35;;;2.00;;
15536;SDS011;7870;52.448;13.270;2023-08-24T07:41:51;6.03;;;1.95;;
15536;SDS011;7870;52.448;13.270;2023-08-24T07:44:17;6.55;;;2.33;;
15536;SDS011;7870;52.448;13.270;2023-08-24T07:46:44;8.13;;;2.00;;
15536;SDS011;7870;52.448;13.270;2023-08-24T07:49:10;7.50;;;2.05;;
15536;SDS011;7870;52.448;13.270;2023-08-24T07:51:37;7.93;;;2.28;;
15536;SDS011;7870;52.448;13.270;2023-08-24T07:54:03;3.13;;;1.80;;
15536;SDS011;7870;52.448;13.270;2023-08-24T07:56:30;4.75;;;1.77;;
15536;SDS011;7870;52.448;13.270;2023-08-24T07:58:57;3.92;;;1.90;;
15536;SDS011;7870;52.448;13.270;2023-08-24T08:01:23;3.70;;;1.73;;
15536;SDS011;7870;52.448;13.270;2023-08-24T08:03:50;8.02;;;2.53;;
15536;SDS011;7870;52.448;13.270;2023-08-24T08:06:17;2.83;;;1.55;;
15536;SDS011;7870;52.448;13.270;2023-08-24T08:08:43;3.28;;;1.50;;
15536;SDS011;7870;52.448;13.270;2023-08-24T08:11:12;4.88;;;1.85;;
15536;SDS011;7870;52.448;13.270;2023-08-24T08:13:38;6.15;;;1.52;;
15536;SDS011;7870;52.448;13.270;2023-08-24T08:16:05;3.42;;;1.85;;
15536;SDS011;7870;52.448;13.270;2023-08-24T08:18:32;5.72;;;2.13;;
15536;SDS011;7870;52.448;13.270;2023-08-24T08:21:00;6.85;;;1.75;;
15536;SDS011;7870;52.448;13.270;2023-08-24T08:23:26;6.63;;;2.00;;
15536;SDS011;7870;52.448;13.270;2023-08-24T08:25:53;5.82;;;2.20;;
15536;SDS011;7870;52.448;13.270;2023-08-24T08:28:19;7.75;;;1.85;;
15536;SDS011;7870;52.448;13.270;2023-08-24T08:30:47;4.85;;;2.00;;
15536;SDS011;7870;52.448;13.270;2023-08-24T08:33:15;4.53;;;1.65;;
15536;SDS011;7870;52.448;13.270;2023-08-24T08:35:41;3.58;;;1.85;;
15536;SDS011;7870;52.448;13.270;2023-08-24T08:38:08;5.82;;;1.70;;
15536;SDS011;7870;52.448;13.270;2023-08-24T08:40:38;6.85;;;2.15;;
15536;SDS011;7870;52.448;13.270;2023-08-24T08:43:05;5.77;;;1.90;;
15536;SDS011;7870;52.448;13.270;2023-08-24T08:45:32;4.70;;;1.70;;
15536;SDS011;7870;52.448;13.270;2023-08-24T08:47:59;15.18;;;2.60;;
15536;SDS011;7870;52.448;13.270;2023-08-24T08:50:27;8.20;;;1.83;;
15536;SDS011;7870;52.448;13.270;2023-08-24T08:52:57;3.97;;;1.67;;
15536;SDS011;7870;52.448;13.270;2023-08-24T08:55:25;4.28;;;1.73;;
15536;SDS011;7870;52.448;13.270;2023-08-24T08:57:53;6.90;;;1.92;;
15536;SDS011;7870;52.448;13.270;2023-08-24T09:00:24;4.88;;;1.83;;
15536;SDS011;7870;52.448;13.270;2023-08-24T09:02:51;4.20;;;1.85;;
15536;SDS011;7870;52.448;13.270;2023-08-24T09:05:19;5.68;;;1.90;;
15536;SDS011;7870;52.448;13.270;2023-08-24T09:07:46;4.97;;;1.50;;
15536;SDS011;7870;52.448;13.270;2023-08-24T09:10:14;2.92;;;1.90;;
15536;SDS011;7870;52.448;13.270;2023-08-24T09:12:40;3.50;;;1.73;;
15536;SDS011;7870;52.448;13.270;2023-08-24T09:15:07;6.40;;;2.00;;
15536;SDS011;7870;52.448;13.270;2023-08-24T09:17:34;6.10;;;1.80;;
15536;SDS011;7870;52.448;13.270;2023-08-24T09:20:06;3.47;;;1.90;;
15536;SDS011;7870;52.448;13.270;2023-08-24T09:22:37;4.78;;;1.88;;
15536;SDS011;7870;52.448;13.270;2023-08-24T09:25:04;4.30;;;1.77;;
15536;SDS011;7870;52.448;13.270;2023-08-24T09:27:32;8.57;;;2.08;;
15536;SDS011;7870;52.448;13.270;2023-08-24T09:30:00;5.63;;;2.10;;
15536;SDS011;7870;52.448;13.270;2023-08-24T09:32:27;5.88;;;2.22;;
15536;SDS011;7870;52.448;13.270;2023-08-24T09:34:54;4.35;;;2.08;;
15536;SDS011;7870;52.448;13.270;2023-08-24T09:37:21;5.82;;;1.90;;
15536;SDS011;7870;52.448;13.270;2023-08-24T09:39:47;9.15;;;2.85;;
15536;SDS011;7870;52.448;13.270;2023-08-24T09:42:14;5.03;;;2.10;;
15536;SDS011;7870;52.448;13.270;2023-08-24T09:44:44;7.10;;;2.28;;
15536;SDS011;7870;52.448;13.270;2023-08-24T09:47:13;4.50;;;1.90;;
15536;SDS011;7870;52.448;13.270;2023-08-24T09:49:39;5.28;;;2.22;;
15536;SDS011;7870;52.448;13.270;2023-08-24T09:52:06;4.82;;;1.90;;
15536;SDS011;7870;52.448;13.270;2023-08-24T09:54:35;4.70;;;1.77;;
15536;SDS011;7870;52.448;13.270;2023-08-24T09:57:04;3.22;;;1.38;;
15536;SDS011;7870;52.448;13.270;2023-08-24T09:59:33;6.10;;;1.65;;
15536;SDS011;7870;52.448;13.270;2023-08-24T10:02:01;3.40;;;1.58;;
15536;SDS011;7870;52.448;13.270;2023-08-24T10:04:29;4.03;;;1.70;;
15536;SDS011;7870;52.448;13.270;2023-08-24T10:06:59;5.20;;;1.40;;
15536;SDS011;7870;52.448;13.270;2023-08-24T10:09:35;4.03;;;1.60;;
15536;SDS011;7870;52.448;13.270;2023-08-24T10:12:05;3.95;;;1.80;;
15536;SDS011;7870;52.448;13.270;2023-08-24T10:14:41;5.25;;;1.58;;
15536;SDS011;7870;52.448;13.270;2023-08-24T10:17:10;4.63;;;1.50;;
15536;SDS011;7870;52.448;13.270;2023-08-24T10:19:40;4.37;;;1.47;;
15536;SDS011;7870;52.448;13.270;2023-08-24T10:22:07;4.90;;;1.58;;
15536;SDS011;7870;52.448;13.270;2023-08-24T10:24:34;4.20;;;1.50;;
15536;SDS011;7870;52.448;13.270;2023-08-24T10:27:01;6.78;;;2.05;;
15536;SDS011;7870;52.448;13.270;2023-08-24T10:29:28;4.18;;;1.35;;
15536;SDS011;7870;52.448;13.270;2023-08-24T10:31:56;6.18;;;1.75;;
15536;SDS011;7870;52.448;13.270;2023-08-24T10:34:23;3.40;;;1.73;;
15536;SDS011;7870;52.448;13.270;2023-08-24T10:36:50;7.30;;;1.50;;
15536;SDS011;7870;52.448;13.270;2023-08-24T10:39:17;4.60;;;2.00;;
15536;SDS011;7870;52.448;13.270;2023-08-24T10:41:47;5.13;;;1.80;;
15536;SDS011;7870;52.448;13.270;2023-08-24T10:47:05;5.95;;;1.95;;
15536;SDS011;7870;52.448;13.270;2023-08-24T10:52:23;4.85;;;1.90;;
15536;SDS011;7870;52.448;13.270;2023-08-24T10:54:51;4.70;;;2.03;;
15536;SDS011;7870;52.448;13.270;2023-08-24T10:57:20;5.15;;;1.75;;
15536;SDS011;7870;52.448;13.270;2023-08-24T11:00:03;6.25;;;1.92;;
15536;SDS011;7870;52.448;13.270;2023-08-24T11:02:40;7.90;;;2.17;;
15536;SDS011;7870;52.448;13.270;2023-08-24T11:10:30;4.95;;;2.00;;
15536;SDS011;7870;52.448;13.270;2023-08-24T11:15:30;2.95;;;1.88;;
15536;SDS011;7870;52.448;13.270;2023-08-24T11:21:01;4.00;;;1.48;;
15536;SDS011;7870;52.448;13.270;2023-08-24T11:23:29;4.57;;;1.83;;
15536;SDS011;7870;52.448;13.270;2023-08-24T11:25:57;4.38;;;1.90;;
15536;SDS011;7870;52.448;13.270;2023-08-24T11:28:26;5.22;;;2.22;;
15536;SDS011;7870;52.448;13.270;2023-08-24T11:30:54;3.35;;;1.98;;
15536;SDS011;7870;52.448;13.270;2023-08-24T11:35:58;4.97;;;1.90;;
15536;SDS011;7870;52.448;13.270;2023-08-24T11:38:25;6.10;;;1.70;;
15536;SDS011;7870;52.448;13.270;2023-08-24T11:41:02;4.43;;;2.13;;
15536;SDS011;7870;52.448;13.270;2023-08-24T11:43:36;6.25;;;2.33;;
15536;SDS011;7870;52.448;13.270;2023-08-24T11:46:03;3.97;;;1.85;;
15536;SDS011;7870;52.448;13.270;2023-08-24T11:48:29;5.95;;;2.00;;
15536;SDS011;7870;52.448;13.270;2023-08-24T11:50:59;6.43;;;1.95;;
15536;SDS011;7870;52.448;13.270;2023-08-24T11:53:26;3.72;;;1.67;;
15536;SDS011;7870;52.448;13.270;2023-08-24T11:55:54;5.60;;;2.13;;
15536;SDS011;7870;52.448;13.270;2023-08-24T11:58:31;4.30;;;2.00;;
15536;SDS011;7870;52.448;13.270;2023-08-24T12:00:58;4.13;;;2.30;;
15536;SDS011;7870;52.448;13.270;2023-08-24T12:03:25;4.55;;;1.90;;
15536;SDS011;7870;52.448;13.270;2023-08-24T12:05:51;5.40;;;1.85;;
15536;SDS011;7870;52.448;13.270;2023-08-24T12:08:18;3.00;;;1.73;;
15536;SDS011;7870;52.448;13.270;2023-08-24T12:10:44;33.65;;;5.05;;
15536;SDS011;7870;52.448;13.270;2023-08-24T12:13:11;6.47;;;2.40;;
15536;SDS011;7870;52.448;13.270;2023-08-24T12:15:40;4.32;;;2.05;;
15536;SDS011;7870;52.448;13.270;2023-08-24T12:18:08;3.63;;;1.80;;
15536;SDS011;7870;52.448;13.270;2023-08-24T12:20:35;5.38;;;2.13;;
15536;SDS011;7870;52.448;13.270;2023-08-24T12:23:02;7.30;;;1.75;;
15536;SDS011;7870;52.448;13.270;2023-08-24T12:25:29;4.22;;;1.75;;
15536;SDS011;7870;52.448;13.270;2023-08-24T12:28:10;4.78;;;2.05;;
15536;SDS011;7870;52.448;13.270;2023-08-24T12:30:50;4.85;;;1.60;;
15536;SDS011;7870;52.448;13.270;2023-08-24T12:33:21;6.85;;;1.95;;
15536;SDS011;7870;52.448;13.270;2023-08-24T12:35:57;8.30;;;2.30;;
15536;SDS011;7870;52.448;13.270;2023-08-24T12:38:27;13.90;;;2.88;;
15536;SDS011;7870;52.448;13.270;2023-08-24T12:40:53;5.35;;;2.20;;
15536;SDS011;7870;52.448;13.270;2023-08-24T12:43:21;4.97;;;1.85;;
15536;SDS011;7870;52.448;13.270;2023-08-24T12:45:47;4.78;;;1.95;;
15536;SDS011;7870;52.448;13.270;2023-08-24T12:48:15;5.00;;;1.95;;
15536;SDS011;7870;52.448;13.270;2023-08-24T12:50:41;4.30;;;2.50;;
15536;SDS011;7870;52.448;13.270;2023-08-24T12:53:08;6.80;;;1.92;;
15536;SDS011;7870;52.448;13.270;2023-08-24T12:55:35;7.28;;;1.92;;
15536;SDS011;7870;52.448;13.270;2023-08-24T12:58:06;4.55;;;1.92;;
15536;SDS011;7870;52.448;13.270;2023-08-24T13:00:32;5.72;;;1.90;;
15536;SDS011;7870;52.448;13.270;2023-08-24T13:02:59;3.97;;;1.88;;
15536;SDS011;7870;52.448;13.270;2023-08-24T13:05:25;6.63;;;1.90;;
15536;SDS011;7870;52.448;13.270;2023-08-24T13:07:52;3.10;;;1.35;;
15536;SDS011;7870;52.448;13.270;2023-08-24T13:10:21;4.22;;;2.33;;
15536;SDS011;7870;52.448;13.270;2023-08-24T13:12:48;4.05;;;1.77;;
15536;SDS011;7870;52.448;13.270;2023-08-24T13:15:14;6.40;;;2.08;;
15536;SDS011;7870;52.448;13.270;2023-08-24T13:17:41;11.25;;;1.92;;
15536;SDS011;7870;52.448;13.270;2023-08-24T13:20:08;3.58;;;1.80;;
15536;SDS011;7870;52.448;13.270;2023-08-24T13:22:34;4.90;;;2.10;;
15536;SDS011;7870;52.448;13.270;2023-08-24T13:25:01;4.95;;;1.90;;
15536;SDS011;7870;52.448;13.270;2023-08-24T13:27:28;4.88;;;1.80;;
15536;SDS011;7870;52.448;13.270;2023-08-24T13:29:55;7.53;;;2.15;;
15536;SDS011;7870;52.448;13.270;2023-08-24T13:32:24;4.78;;;2.15;;
15536;SDS011;7870;52.448;13.270;2023-08-24T13:34:50;7.05;;;1.98;;
15536;SDS011;7870;52.448;13.270;2023-08-24T13:37:17;2.65;;;1.63;;
15536;SDS011;7870;52.448;13.270;2023-08-24T13:39:46;4.32;;;2.15;;
15536;SDS011;7870;52.448;13.270;2023-08-24T13:42:12;5.25;;;1.70;;
15536;SDS011;7870;52.448;13.270;2023-08-24T13:44:39;3.60;;;2.00;;
15536;SDS011;7870;52.448;13.270;2023-08-24T13:47:06;3.13;;;1.65;;
15536;SDS011;7870;52.448;13.270;2023-08-24T13:49:33;4.15;;;1.98;;
15536;SDS011;7870;52.448;13.270;2023-08-24T13:52:06;4.80;;;2.05;;
15536;SDS011;7870;52.448;13.270;2023-08-24T13:54:32;3.40;;;1.83;;
15536;SDS011;7870;52.448;13.270;2023-08-24T13:56:59;5.15;;;1.90;;
15536;SDS011;7870;52.448;13.270;2023-08-24T13:59:27;4.43;;;1.98;;
15536;SDS011;7870;52.448;13.270;2023-08-24T14:01:53;4.45;;;1.85;;
15536;SDS011;7870;52.448;13.270;2023-08-24T14:04:20;6.57;;;1.98;;
15536;SDS011;7870;52.448;13.270;2023-08-24T14:06:47;3.42;;;2.00;;
15536;SDS011;7870;52.448;13.270;2023-08-24T14:09:14;3.45;;;1.83;;
15536;SDS011;7870;52.448;13.270;2023-08-24T14:11:41;6.13;;;2.08;;
15536;SDS011;7870;52.448;13.270;2023-08-24T14:14:08;4.47;;;1.58;;
15536;SDS011;7870;52.448;13.270;2023-08-24T14:16:35;3.78;;;1.75;;
15536;SDS011;7870;52.448;13.270;2023-08-24T14:19:01;7.97;;;1.73;;
15536;SDS011;7870;52.448;13.270;2023-08-24T14:21:31;12.27;;;2.00;;
15536;SDS011;7870;52.448;13.270;2023-08-24T14:24:10;7.18;;;1.45;;
15536;SDS011;7870;52.448;13.270;2023-08-24T14:26:37;5.97;;;1.50;;
15536;SDS011;7870;52.448;13.270;2023-08-24T14:29:05;4.45;;;1.50;;
15536;SDS011;7870;52.448;13.270;2023-08-24T14:31:32;3.17;;;1.60;;
15536;SDS011;7870;52.448;13.270;2023-08-24T14:33:58;6.13;;;1.83;;
15536;SDS011;7870;52.448;13.270;2023-08-24T14:36:25;2.85;;;1.70;;
15536;SDS011;7870;52.448;13.270;2023-08-24T14:38:52;3.60;;;1.63;;
15536;SDS011;7870;52.448;13.270;2023-08-24T14:41:18;4.85;;;1.70;;
15536;SDS011;7870;52.448;13.270;2023-08-24T14:43:45;8.38;;;2.03;;
15536;SDS011;7870;52.448;13.270;2023-08-24T14:46:12;4.85;;;1.95;;
15536;SDS011;7870;52.448;13.270;2023-08-24T14:48:39;3.70;;;1.70;;
15536;SDS011;7870;52.448;13.270;2023-08-24T14:51:05;3.95;;;1.65;;
15536;SDS011;7870;52.448;13.270;2023-08-24T14:53:32;4.68;;;1.95;;
15536;SDS011;7870;52.448;13.270;2023-08-24T14:55:59;3.80;;;1.60;;
15536;SDS011;7870;52.448;13.270;2023-08-24T14:58:26;5.63;;;2.35;;
15536;SDS011;7870;52.448;13.270;2023-08-24T15:00:53;3.50;;;1.35;;
15536;SDS011;7870;52.448;13.270;2023-08-24T15:03:21;4.57;;;1.85;;
15536;SDS011;7870;52.448;13.270;2023-08-24T15:06:01;4.25;;;2.47;;
15536;SDS011;7870;52.448;13.270;2023-08-24T15:08:31;3.67;;;1.73;;
15536;SDS011;7870;52.448;13.270;2023-08-24T15:10:58;4.63;;;2.22;;
15536;SDS011;7870;52.448;13.270;2023-08-24T15:13:26;4.78;;;1.60;;
15536;SDS011;7870;52.448;13.270;2023-08-24T15:15:54;6.47;;;2.20;;
15536;SDS011;7870;52.448;13.270;2023-08-24T15:18:22;6.45;;;1.83;;